Terminal Aerodrome Forecast
Issued by NWS Jackson, MS

Home | Current Version | Previous Version | Text Only | Print | Product List | Glossary On
Versions: 1 2 3 4 5 6 7 8 9 10 11 12 13 14 15 16 17 18
365
FTUS44 KJAN 240530
TAFMEI
TAF
KMEI 240530Z 2406/2506 18005KT P6SM SCT015 BKN250
     FM241000 19004KT 3SM BR OVC010
     FM241200 19003KT 1/2SM FG OVC007
     FM241400 19005KT 3SM BR OVC015
     FM241500 19015G20KT P6SM BKN040
     FM250000 20008KT P6SM OVC020=

USA.gov is the U.S. government's official web portal to all federal, state and local government web resources and services.